Time,TemperatureF,DewpointF,PressureIn,WindDirection,WindDirectionDegrees,WindSpeedMPH,WindSpeedGustMPH,Humidity,HourlyPrecipIn,Conditions,Clouds,dailyrainin,SoftwareType,DateUTC
2013-01-28 00:16:00,23.5,11.0,30.41,WSW,255,1.0,2.0,59,0.00,,,0.00,weatherlink.com 1.10,2013-01-28 05:16:00,
2013-01-28 00:32:00,21.7,10.0,30.41,WSW,248,1.0,2.0,61,0.00,,,0.00,weatherlink.com 1.10,2013-01-28 05:32:00,
2013-01-28 00:47:00,21.5,9.0,30.41,SW,221,2.0,3.0,59,0.00,,,0.00,weatherlink.com 1.10,2013-01-28 05:47:00,
2013-01-28 01:02:00,20.6,8.0,30.40,WSW,245,1.0,2.0,58,0.00,,,0.00,weatherlink.com 1.10,2013-01-28 06:02:00,
2013-01-28 01:17:00,19.6,8.0,30.41,SW,235,2.0,3.0,60,0.00,,,0.00,weatherlink.com 1.10,2013-01-28 06:17:00,
2013-01-28 01:32:00,19.7,7.0,30.41,WSW,246,1.0,2.0,59,0.00,,,0.00,weatherlink.com 1.10,2013-01-28 06:32:00,
2013-01-28 01:47:00,19.3,8.0,30.40,West,259,1.0,2.0,61,0.00,,,0.00,weatherlink.com 1.10,2013-01-28 06:47:00,
2013-01-28 02:02:00,18.8,8.0,30.40,SW,229,1.0,2.0,62,0.00,,,0.00,weatherlink.com 1.10,2013-01-28 07:02:00,
2013-01-28 02:17:00,18.3,8.0,30.41,West,264,1.0,2.0,63,0.00,,,0.00,weatherlink.com 1.10,2013-01-28 07:17:00,
2013-01-28 02:32:00,17.6,8.0,30.40,West,266,1.0,1.0,65,0.00,,,0.00,weatherlink.com 1.10,2013-01-28 07:32:00,
2013-01-28 02:47:00,17.9,9.0,30.41,SW,231,2.0,2.0,67,0.00,,,0.00,weatherlink.com 1.10,2013-01-28 07:47:00,
2013-01-28 03:02:00,17.9,9.0,30.40,WSW,249,1.0,2.0,67,0.00,,,0.00,weatherlink.com 1.10,2013-01-28 08:02:00,
2013-01-28 03:17:00,17.3,8.0,30.40,West,266,1.0,1.0,68,0.00,,,0.00,weatherlink.com 1.10,2013-01-28 08:17:00,
2013-01-28 03:32:00,17.1,9.0,30.40,West,271,1.0,2.0,70,0.00,,,0.00,weatherlink.com 1.10,2013-01-28 08:32:00,
2013-01-28 03:47:00,16.9,9.0,30.39,West,271,0.0,2.0,71,0.00,,,0.00,weatherlink.com 1.10,2013-01-28 08:47:00,
2013-01-28 04:02:00,17.1,9.0,30.40,West,281,1.0,2.0,71,0.00,,,0.00,weatherlink.com 1.10,2013-01-28 09:02:00,
2013-01-28 04:17:00,17.9,10.0,30.40,WSW,250,1.0,1.0,71,0.00,,,0.00,weatherlink.com 1.10,2013-01-28 09:17:00,
2013-01-28 04:32:00,17.9,10.0,30.39,West,273,1.0,2.0,71,0.00,,,0.00,weatherlink.com 1.10,2013-01-28 09:32:00,
2013-01-28 04:47:00,17.5,10.0,30.39,West,270,1.0,1.0,73,0.00,,,0.00,weatherlink.com 1.10,2013-01-28 09:47:00,
2013-01-28 05:02:00,17.6,11.0,30.39,West,271,0.0,1.0,75,0.00,,,0.00,weatherlink.com 1.10,2013-01-28 10:02:00,
2013-01-28 05:17:00,18.5,12.0,30.39,West,276,0.0,1.0,74,0.00,,,0.00,weatherlink.com 1.10,2013-01-28 10:17:00,
2013-01-28 05:32:00,18.6,12.0,30.39,West,267,1.0,2.0,76,0.00,,,0.00,weatherlink.com 1.10,2013-01-28 10:32:00,
2013-01-28 05:47:00,19.5,12.0,30.39,West,267,1.0,2.0,74,0.00,,,0.00,weatherlink.com 1.10,2013-01-28 10:47:00,
2013-01-28 06:03:00,19.7,13.0,30.39,WSW,245,1.0,2.0,74,0.00,,,0.00,weatherlink.com 1.10,2013-01-28 11:03:00,
2013-01-28 06:17:00,19.7,12.0,30.39,SW,232,1.0,2.0,73,0.00,,,0.00,weatherlink.com 1.10,2013-01-28 11:17:00,
2013-01-28 06:33:00,19.5,12.0,30.39,WSW,256,0.0,1.0,73,0.00,,,0.00,weatherlink.com 1.10,2013-01-28 11:33:00,
2013-01-28 06:48:00,19.4,12.0,30.39,WSW,248,1.0,1.0,74,0.00,,,0.00,weatherlink.com 1.10,2013-01-28 11:48:00,
2013-01-28 07:03:00,19.2,12.0,30.38,WSW,248,1.0,1.0,73,0.00,,,0.00,weatherlink.com 1.10,2013-01-28 12:03:00,
2013-01-28 07:18:00,19.4,12.0,30.39,WSW,245,1.0,1.0,73,0.00,,,0.00,weatherlink.com 1.10,2013-01-28 12:18:00,
2013-01-28 07:32:00,19.8,12.0,30.39,WSW,245,1.0,2.0,72,0.00,,,0.00,weatherlink.com 1.10,2013-01-28 12:32:00,
2013-01-28 07:47:00,20.2,12.0,30.39,West,259,1.0,2.0,71,0.00,,,0.00,weatherlink.com 1.10,2013-01-28 12:47:00,
2013-01-28 08:02:00,22.1,13.0,30.39,WSW,242,3.0,4.0,69,0.00,,,0.00,weatherlink.com 1.10,2013-01-28 13:02:00,
2013-01-28 08:18:00,23.7,14.0,30.39,SW,226,0.0,4.0,67,0.00,,,0.00,weatherlink.com 1.10,2013-01-28 13:18:00,
2013-01-28 08:33:00,24.6,14.0,30.38,WSW,250,2.0,2.0,63,0.00,,,0.00,weatherlink.com 1.10,2013-01-28 13:33:00,
2013-01-28 08:47:00,25.4,14.0,30.38,WSW,256,3.0,3.0,62,0.00,,,0.00,weatherlink.com 1.10,2013-01-28 13:47:00,
2013-01-28 09:03:00,26.6,14.0,30.38,SSW,210,3.0,4.0,60,0.00,,,0.00,weatherlink.com 1.10,2013-01-28 14:03:00,
2013-01-28 09:18:00,27.7,15.0,30.39,SSW,205,3.0,6.0,60,0.00,,,0.00,weatherlink.com 1.10,2013-01-28 14:18:00,
2013-01-28 09:33:00,28.0,16.0,30.38,SSW,207,6.0,8.0,62,0.00,,,0.00,weatherlink.com 1.10,2013-01-28 14:33:00,
2013-01-28 09:48:00,28.5,16.0,30.38,SSW,199,5.0,7.0,60,0.00,,,0.00,weatherlink.com 1.10,2013-01-28 14:48:00,
2013-01-28 10:03:00,28.3,16.0,30.38,SW,215,6.0,8.0,61,0.00,,,0.00,weatherlink.com 1.10,2013-01-28 15:03:00,
2013-01-28 10:18:00,27.9,17.0,30.38,SSW,210,8.0,9.0,63,0.00,,,0.00,weatherlink.com 1.10,2013-01-28 15:18:00,
2013-01-28 10:33:00,28.1,14.0,30.38,SSW,209,8.0,8.0,57,0.00,,,0.00,weatherlink.com 1.10,2013-01-28 15:33:00,
2013-01-28 10:48:00,28.0,14.0,30.37,SSW,200,6.0,10.0,57,0.00,,,0.00,weatherlink.com 1.10,2013-01-28 15:48:00,
2013-01-28 11:03:00,27.6,15.0,30.36,SSW,208,6.0,9.0,59,0.00,,,0.00,weatherlink.com 1.10,2013-01-28 16:03:00,
2013-01-28 11:18:00,27.7,13.0,30.35,SSW,207,5.0,7.0,55,0.00,,,0.00,weatherlink.com 1.10,2013-01-28 16:18:00,
2013-01-28 11:33:00,27.5,13.0,30.34,SW,218,5.0,7.0,54,0.00,,,0.00,weatherlink.com 1.10,2013-01-28 16:33:00,
2013-01-28 11:48:00,27.7,14.0,30.33,SSW,195,4.0,7.0,56,0.00,,,0.00,weatherlink.com 1.10,2013-01-28 16:48:00,
2013-01-28 12:03:00,27.9,13.0,30.32,SW,215,6.0,7.0,53,0.00,,,0.00,weatherlink.com 1.10,2013-01-28 17:03:00,
2013-01-28 12:18:00,27.9,12.0,30.30,SW,222,5.0,6.0,52,0.00,,,0.00,weatherlink.com 1.10,2013-01-28 17:18:00,
2013-01-28 12:33:00,28.1,11.0,30.30,SSW,200,5.0,8.0,49,0.00,,,0.00,weatherlink.com 1.10,2013-01-28 17:33:00,
2013-01-28 12:48:00,28.0,13.0,30.28,SSW,212,7.0,8.0,53,0.00,,,0.00,weatherlink.com 1.10,2013-01-28 17:48:00,
2013-01-28 13:03:00,28.1,11.0,30.27,SSW,201,5.0,6.0,49,0.00,,,0.00,weatherlink.com 1.10,2013-01-28 18:03:00,
2013-01-28 13:18:00,28.3,9.0,30.27,SW,218,5.0,6.0,45,0.00,,,0.00,weatherlink.com 1.10,2013-01-28 18:18:00,
2013-01-28 13:33:00,28.2,12.0,30.26,SW,222,3.0,5.0,51,0.00,,,0.00,weatherlink.com 1.10,2013-01-28 18:33:00,
2013-01-28 13:48:00,28.3,11.0,30.25,SW,232,3.0,5.0,49,0.00,,,0.00,weatherlink.com 1.10,2013-01-28 18:48:00,
2013-01-28 14:03:00,28.3,12.0,30.23,SW,226,4.0,5.0,51,0.00,,,0.00,weatherlink.com 1.10,2013-01-28 19:03:00,
2013-01-28 14:18:00,28.4,13.0,30.23,SW,217,3.0,4.0,53,0.00,,,0.00,weatherlink.com 1.10,2013-01-28 19:18:00,
2013-01-28 14:33:00,28.5,13.0,30.21,SSW,212,2.0,3.0,53,0.00,,,0.00,weatherlink.com 1.10,2013-01-28 19:33:00,
2013-01-28 14:49:00,28.6,14.0,30.20,SW,226,0.0,1.0,54,0.00,,,0.00,weatherlink.com 1.10,2013-01-28 19:49:00,
2013-01-28 15:03:00,28.9,15.0,30.20,SW,222,1.0,2.0,56,0.00,,,0.00,weatherlink.com 1.10,2013-01-28 20:03:00,
2013-01-28 15:19:00,29.0,16.0,30.19,SW,219,0.0,1.0,58,0.00,,,0.00,weatherlink.com 1.10,2013-01-28 20:19:00,
2013-01-28 15:34:00,29.1,16.0,30.19,SW,224,0.0,1.0,59,0.00,,,0.00,weatherlink.com 1.10,2013-01-28 20:34:00,
2013-01-28 15:49:00,29.2,16.0,30.17,SW,224,0.0,0.0,59,0.00,,,0.00,weatherlink.com 1.10,2013-01-28 20:49:00,
2013-01-28 16:04:00,29.2,18.0,30.16,ENE,65,2.0,2.0,63,0.00,,,0.00,weatherlink.com 1.10,2013-01-28 21:04:00,
2013-01-28 16:19:00,29.2,19.0,30.15,NNE,33,0.0,2.0,66,0.00,,,0.00,weatherlink.com 1.10,2013-01-28 21:19:00,
2013-01-28 16:34:00,29.7,21.0,30.15,ENE,65,0.0,1.0,71,0.00,,,0.00,weatherlink.com 1.10,2013-01-28 21:34:00,
2013-01-28 16:49:00,29.8,22.0,30.15,ENE,65,0.0,1.0,72,0.00,,,0.00,weatherlink.com 1.10,2013-01-28 21:49:00,
2013-01-28 17:04:00,29.7,22.0,30.14,ENE,65,0.0,1.0,74,0.00,,,0.00,weatherlink.com 1.10,2013-01-28 22:04:00,
2013-01-28 17:19:00,29.4,23.0,30.15,ENE,65,0.0,1.0,77,0.00,,,0.00,weatherlink.com 1.10,2013-01-28 22:19:00,
2013-01-28 17:34:00,29.3,24.0,30.15,ENE,65,2.0,2.0,79,0.00,,,0.00,weatherlink.com 1.10,2013-01-28 22:34:00,
2013-01-28 17:49:00,28.4,25.0,30.14,ENE,58,2.0,3.0,86,0.00,,,0.00,weatherlink.com 1.10,2013-01-28 22:49:00,
2013-01-28 18:04:00,27.9,25.0,30.13,NE,41,2.0,3.0,90,0.00,,,0.00,weatherlink.com 1.10,2013-01-28 23:04:00,
2013-01-28 18:19:00,28.0,26.0,30.12,NE,56,1.0,3.0,92,0.00,,,0.00,weatherlink.com 1.10,2013-01-28 23:19:00,
2013-01-28 18:34:00,28.2,27.0,30.11,NE,49,1.0,2.0,93,0.00,,,0.00,weatherlink.com 1.10,2013-01-28 23:34:00,
2013-01-28 18:49:00,28.5,27.0,30.09,NE,49,0.0,1.0,94,0.00,,,0.00,weatherlink.com 1.10,2013-01-28 23:49:00,
2013-01-28 19:04:00,29.4,28.0,30.08,NE,51,5.0,5.0,95,0.00,,,0.00,weatherlink.com 1.10,2013-01-29 00:04:00,
2013-01-28 19:19:00,30.2,29.0,30.07,NE,49,4.0,6.0,95,0.00,,,0.00,weatherlink.com 1.10,2013-01-29 00:19:00,
2013-01-28 19:34:00,30.7,30.0,30.07,NE,40,0.0,4.0,95,0.00,,,0.00,weatherlink.com 1.10,2013-01-29 00:34:00,
2013-01-28 19:49:00,31.2,30.0,30.06,ENE,65,2.0,4.0,95,0.00,,,0.00,weatherlink.com 1.10,2013-01-29 00:49:00,
2013-01-28 20:04:00,31.6,30.0,30.05,NE,52,3.0,5.0,95,0.00,,,0.00,weatherlink.com 1.10,2013-01-29 01:04:00,
2013-01-28 20:19:00,32.1,31.0,30.05,NNE,18,3.0,5.0,95,0.00,,,0.00,weatherlink.com 1.10,2013-01-29 01:19:00,
2013-01-28 20:35:00,32.5,32.0,30.03,ESE,105,1.0,6.0,96,0.00,,,0.00,weatherlink.com 1.10,2013-01-29 01:35:00,
2013-01-28 20:50:00,32.7,32.0,30.03,ENE,70,0.0,2.0,96,0.00,,,0.00,weatherlink.com 1.10,2013-01-29 01:50:00,
2013-01-28 21:05:00,33.1,32.0,30.03,ESE,116,1.0,4.0,96,0.00,,,0.00,weatherlink.com 1.10,2013-01-29 02:05:00,
2013-01-28 21:20:00,33.1,32.0,30.02,East,95,0.0,2.0,96,0.00,,,0.00,weatherlink.com 1.10,2013-01-29 02:20:00,
2013-01-28 21:35:00,33.3,32.0,30.02,NNE,29,0.0,2.0,96,0.00,,,0.00,weatherlink.com 1.10,2013-01-29 02:35:00,
2013-01-28 21:50:00,33.5,33.0,30.01,ESE,112,1.0,4.0,96,0.00,,,0.00,weatherlink.com 1.10,2013-01-29 02:50:00,
2013-01-28 22:05:00,33.7,33.0,30.01,NNE,26,1.0,3.0,96,0.00,,,0.00,weatherlink.com 1.10,2013-01-29 03:05:00,
2013-01-28 22:20:00,33.7,33.0,29.99,NE,49,3.0,3.0,96,0.02,,,0.02,weatherlink.com 1.10,2013-01-29 03:20:00,
2013-01-28 22:35:00,34.0,33.0,30.00,SE,133,0.0,2.0,96,0.03,,,0.03,weatherlink.com 1.10,2013-01-29 03:35:00,
2013-01-28 22:50:00,34.1,33.0,29.98,NE,42,2.0,3.0,97,0.04,,,0.04,weatherlink.com 1.10,2013-01-29 03:50:00,
2013-01-28 23:05:00,34.3,34.0,29.99,NE,56,0.0,1.0,97,0.05,,,0.05,weatherlink.com 1.10,2013-01-29 04:05:00,
2013-01-28 23:20:00,34.6,34.0,29.99,NNE,17,0.0,1.0,97,0.04,,,0.06,weatherlink.com 1.10,2013-01-29 04:20:00,
2013-01-28 23:35:00,34.1,33.0,29.99,NNE,17,0.0,0.0,96,0.03,,,0.06,weatherlink.com 1.10,2013-01-29 04:35:00,
2013-01-28 23:50:00,34.0,33.0,29.99,NW,323,0.0,1.0,97,0.03,,,0.07,weatherlink.com 1.10,2013-01-29 04:50:00,